Time;durP1;ratioP1;P1;durP2;ratioP2;P2;SDS_P1;SDS_P2;PMS_P1;PMS_P2;Temp;Humidity;BMP_temperature;BMP_pressure;BME280_temperature;BME280_humidity;BME280_pressure;Samples;Min_cycle;Max_cycle;Signal;HPM_P1;HPM_P2
2020/12/21 00:01:55;;;;;;;82.22;42.72;;;5.30;94.20;;;;;;5054464;28;20033;-76
2020/12/21 00:04:21;;;;;;;71.80;40.97;;;5.30;94.30;;;;;;5055446;28;20455;-76
2020/12/21 00:06:58;;;;;;;78.68;45.10;;;5.30;94.40;;;;;;5054120;28;20021;-77
2020/12/21 00:09:24;;;;;;;78.38;43.28;;;5.30;94.30;;;;;;5054224;28;20032;-77
2020/12/21 00:11:51;;;;;;;80.38;43.60;;;5.30;94.30;;;;;;5054879;28;20036;-77
2020/12/21 00:14:18;;;;;;;69.88;39.50;;;5.30;94.30;;;;;;5054978;28;20120;-76
2020/12/21 00:16:49;;;;;;;69.68;38.17;;;5.30;94.20;;;;;;5055112;28;20029;-76
2020/12/21 00:19:19;;;;;;;71.43;40.13;;;5.40;94.20;;;;;;5054505;28;20025;-76
2020/12/21 00:21:50;;;;;;;72.07;39.15;;;5.40;94.10;;;;;;5054123;28;20079;-76
2020/12/21 00:24:16;;;;;;;72.15;39.92;;;5.40;94.10;;;;;;5054715;28;20052;-76
2020/12/21 00:26:46;;;;;;;79.80;46.58;;;5.40;94.20;;;;;;5054008;28;20063;-76
2020/12/21 00:29:12;;;;;;;79.10;47.83;;;5.40;94.10;;;;;;5053650;28;20075;-76
2020/12/21 00:31:38;;;;;;;98.05;55.35;;;5.40;94.10;;;;;;5055696;28;20105;-76
2020/12/21 00:34:04;;;;;;;102.13;58.17;;;5.40;94.10;;;;;;5053498;28;20061;-76
2020/12/21 00:36:37;;;;;;;83.68;46.10;;;5.40;94.20;;;;;;5053576;28;20032;-76
2020/12/21 00:39:04;;;;;;;71.53;41.97;;;5.40;94.10;;;;;;5054929;28;20033;-76
2020/12/21 00:41:30;;;;;;;66.80;39.80;;;5.50;94.20;;;;;;5054476;28;20021;-76
2020/12/21 00:43:56;;;;;;;68.47;38.65;;;5.50;94.10;;;;;;5053366;28;20040;-76
2020/12/21 00:46:24;;;;;;;66.82;39.33;;;5.50;94.10;;;;;;5053662;28;20025;-73
2020/12/21 00:48:50;;;;;;;86.97;51.85;;;5.40;94.10;;;;;;5053249;28;20032;-73
2020/12/21 00:51:16;;;;;;;65.00;38.80;;;5.50;94.10;;;;;;5055129;28;20346;-74
2020/12/21 00:53:46;;;;;;;65.15;38.40;;;5.50;94.10;;;;;;5053433;28;20033;-74
2020/12/21 00:56:12;;;;;;;59.50;35.35;;;5.40;94.10;;;;;;5053190;28;20079;-74
2020/12/21 00:58:42;;;;;;;57.75;35.15;;;5.40;94.20;;;;;;5053606;28;20025;-74
2020/12/21 01:01:11;;;;;;;56.38;33.40;;;5.40;94.20;;;;;;5053318;28;20469;-73
2020/12/21 01:03:38;;;;;;;56.58;32.50;;;5.40;94.20;;;;;;5054280;28;20419;-74
2020/12/21 01:06:04;;;;;;;50.67;30.17;;;5.40;94.10;;;;;;5054868;28;20029;-75
2020/12/21 01:08:30;;;;;;;53.28;30.83;;;5.40;94.10;;;;;;5054507;28;20021;-76
2020/12/21 01:10:56;;;;;;;49.60;29.73;;;5.50;94.20;;;;;;5052942;28;20446;-75
2020/12/21 01:13:22;;;;;;;55.05;31.10;;;5.50;94.10;;;;;;5053078;28;20044;-75
2020/12/21 01:15:48;;;;;;;51.08;30.42;;;5.40;94.10;;;;;;5053040;28;20057;-75
2020/12/21 01:18:13;;;;;;;50.30;28.15;;;5.40;94.10;;;;;;5053782;28;20028;-75
2020/12/21 01:20:42;;;;;;;47.13;29.90;;;5.40;94.00;;;;;;5053034;28;20067;-75
2020/12/21 01:23:08;;;;;;;48.28;29.80;;;5.50;94.00;;;;;;5054057;28;20028;-75
2020/12/21 01:25:34;;;;;;;46.78;28.08;;;5.50;94.00;;;;;;5054234;28;20508;-76
2020/12/21 01:28:00;;;;;;;53.65;32.75;;;5.50;94.00;;;;;;5052514;28;20071;-75
2020/12/21 01:30:26;;;;;;;48.90;29.08;;;5.40;93.90;;;;;;5052284;28;20493;-76
2020/12/21 01:32:52;;;;;;;47.38;27.60;;;5.50;94.00;;;;;;5053501;28;20078;-74
2020/12/21 01:35:17;;;;;;;43.08;26.33;;;5.50;94.00;;;;;;5052775;28;20389;-75
2020/12/21 01:37:43;;;;;;;41.35;26.48;;;5.50;93.90;;;;;;5053477;28;20032;-75
2020/12/21 01:40:11;;;;;;;41.05;25.48;;;5.40;93.80;;;;;;5052990;28;20032;-75
2020/12/21 01:42:38;;;;;;;44.50;26.00;;;5.50;94.00;;;;;;5052649;28;20029;-76
2020/12/21 01:45:08;;;;;;;42.40;25.10;;;5.40;94.00;;;;;;5052312;28;20042;-75
2020/12/21 01:47:35;;;;;;;43.50;26.60;;;5.40;94.10;;;;;;5052572;28;20072;-76
2020/12/21 01:50:01;;;;;;;44.85;25.92;;;5.30;94.10;;;;;;5052622;28;20025;-76
2020/12/21 01:52:27;;;;;;;42.08;24.75;;;5.30;94.20;;;;;;5052270;28;20049;-76
2020/12/21 01:54:53;;;;;;;43.47;24.95;;;5.30;94.40;;;;;;5052424;28;20028;-75
2020/12/21 01:57:19;;;;;;;45.22;27.05;;;5.30;94.30;;;;;;5053105;28;20086;-76
2020/12/21 01:59:45;;;;;;;52.40;28.90;;;5.40;94.10;;;;;;5052136;28;20076;-75
2020/12/21 02:02:11;;;;;;;51.22;29.17;;;5.30;94.20;;;;;;5052452;28;20032;-76
2020/12/21 02:04:38;;;;;;;52.70;30.65;;;5.30;94.20;;;;;;5052405;28;20029;-75
2020/12/21 02:07:06;;;;;;;50.47;28.48;;;5.30;94.20;;;;;;5053148;28;20029;-76
2020/12/21 02:09:32;;;;;;;48.42;27.75;;;5.40;94.30;;;;;;5052419;28;20029;-75
2020/12/21 02:11:58;;;;;;;46.85;27.00;;;5.40;94.20;;;;;;5053625;28;20112;-75
2020/12/21 02:14:24;;;;;;;45.10;27.00;;;5.30;94.20;;;;;;5052965;28;20100;-75
2020/12/21 02:16:49;;;;;;;44.42;25.02;;;5.30;94.20;;;;;;5053017;28;20071;-76
2020/12/21 02:19:15;;;;;;;45.75;27.00;;;5.30;94.20;;;;;;5051964;28;20117;-76
2020/12/21 02:21:41;;;;;;;43.25;25.83;;;5.30;94.30;;;;;;5053275;28;20385;-76
2020/12/21 02:24:07;;;;;;;43.78;25.95;;;5.30;94.20;;;;;;5053302;28;20469;-76
2020/12/21 02:26:33;;;;;;;44.05;25.80;;;5.30;94.20;;;;;;5052876;28;20029;-75
2020/12/21 02:28:59;;;;;;;40.90;25.30;;;5.30;94.20;;;;;;5052296;28;20478;-75
2020/12/21 02:31:26;;;;;;;41.70;26.13;;;5.30;94.10;;;;;;5051887;28;20084;-76
2020/12/21 02:33:52;;;;;;;44.38;25.38;;;5.20;94.30;;;;;;5051986;28;20492;-76
2020/12/21 02:36:19;;;;;;;43.33;26.05;;;5.20;94.40;;;;;;5052679;28;20041;-76
2020/12/21 02:38:45;;;;;;;46.03;27.25;;;5.20;94.40;;;;;;5053927;28;20029;-76
2020/12/21 02:41:15;;;;;;;54.15;32.75;;;5.20;94.40;;;;;;5056969;28;20035;-76
2020/12/21 02:43:41;;;;;;;45.10;26.42;;;5.20;94.30;;;;;;5055986;28;20067;-75
2020/12/21 02:46:08;;;;;;;45.58;25.95;;;5.20;94.40;;;;;;5056032;28;20056;-76
2020/12/21 02:48:33;;;;;;;38.92;23.90;;;5.20;94.60;;;;;;5055646;28;20102;-76
2020/12/21 02:50:59;;;;;;;38.50;23.10;;;5.20;94.60;;;;;;5055914;28;20480;-76
2020/12/21 02:53:25;;;;;;;40.60;25.45;;;5.20;94.50;;;;;;5055439;28;20029;-76
2020/12/21 02:55:51;;;;;;;46.60;28.48;;;5.20;94.50;;;;;;5055524;28;20033;-75
2020/12/21 02:58:17;;;;;;;45.03;26.98;;;5.10;94.50;;;;;;5056680;28;20025;-76
2020/12/21 03:00:43;;;;;;;49.00;28.13;;;5.10;94.60;;;;;;5055910;28;20098;-76
2020/12/21 03:03:09;;;;;;;46.08;27.08;;;5.10;94.60;;;;;;5055401;28;20032;-76
2020/12/21 03:05:35;;;;;;;43.40;26.80;;;5.20;94.70;;;;;;5055868;28;20064;-76
2020/12/21 03:08:02;;;;;;;45.00;27.08;;;5.20;94.40;;;;;;5055473;28;20475;-76
2020/12/21 03:10:28;;;;;;;38.67;23.92;;;5.10;94.50;;;;;;5056463;28;20100;-76
2020/12/21 03:12:54;;;;;;;40.72;25.20;;;5.10;94.30;;;;;;5055355;28;20029;-77
2020/12/21 03:15:20;;;;;;;44.70;26.38;;;5.10;94.50;;;;;;5055143;28;20029;-77
2020/12/21 03:17:46;;;;;;;42.33;26.15;;;5.00;94.50;;;;;;5055391;28;20062;-76
2020/12/21 03:20:11;;;;;;;40.20;24.88;;;5.10;94.80;;;;;;5055101;28;20439;-78
2020/12/21 03:22:37;;;;;;;39.22;23.58;;;5.10;94.50;;;;;;5056456;28;20075;-77
2020/12/21 03:25:04;;;;;;;39.25;23.90;;;5.10;94.50;;;;;;5055006;28;20060;-77
2020/12/21 03:27:29;;;;;;;44.70;26.98;;;5.20;94.30;;;;;;5054894;28;20120;-76
2020/12/21 03:29:55;;;;;;;43.95;26.67;;;5.10;94.50;;;;;;5054694;28;20114;-77
2020/12/21 03:32:21;;;;;;;41.97;25.55;;;5.10;94.50;;;;;;5055708;28;20034;-76
2020/12/21 03:34:47;;;;;;;44.53;26.60;;;5.20;94.40;;;;;;5055045;28;20029;-77
2020/12/21 03:37:13;;;;;;;45.53;28.35;;;5.20;94.30;;;;;;5055771;28;20377;-76
2020/12/21 03:39:39;;;;;;;44.53;25.90;;;5.20;94.40;;;;;;5055011;28;20032;-76
2020/12/21 03:42:05;;;;;;;45.25;29.48;;;5.20;94.40;;;;;;5056189;28;20028;-77
2020/12/21 03:44:31;;;;;;;42.70;25.83;;;5.30;94.40;;;;;;5054202;28;20032;-76
2020/12/21 03:46:57;;;;;;;38.20;24.67;;;5.30;94.30;;;;;;5054709;28;20392;-76
2020/12/21 03:49:22;;;;;;;36.28;22.25;;;5.30;94.20;;;;;;5054329;28;20029;-76
2020/12/21 03:51:48;;;;;;;35.55;22.15;;;5.30;94.00;;;;;;5054061;28;20102;-75
2020/12/21 03:54:14;;;;;;;36.85;23.35;;;5.30;94.10;;;;;;5056250;28;20112;-76
2020/12/21 03:56:42;;;;;;;41.65;25.20;;;5.20;94.20;;;;;;5054665;28;20125;-76
2020/12/21 03:59:09;;;;;;;39.13;24.90;;;5.20;94.30;;;;;;5054279;28;20036;-77
2020/12/21 04:01:34;;;;;;;40.20;24.83;;;5.10;94.50;;;;;;5055847;28;20074;-76
2020/12/21 04:04:00;;;;;;;36.67;22.50;;;5.10;94.50;;;;;;5054468;28;20036;-75
2020/12/21 04:06:26;;;;;;;39.42;24.13;;;5.10;94.60;;;;;;5054221;28;20037;-76
2020/12/21 04:08:51;;;;;;;36.88;23.73;;;5.10;94.60;;;;;;5055440;28;20025;-77
2020/12/21 04:11:17;;;;;;;36.85;22.92;;;5.10;94.40;;;;;;5054024;28;20591;-76
2020/12/21 04:13:43;;;;;;;35.47;22.83;;;5.20;94.40;;;;;;5054162;28;20040;-75
2020/12/21 04:16:09;;;;;;;38.05;22.88;;;5.20;94.30;;;;;;5054240;28;20029;-76
2020/12/21 04:18:34;;;;;;;38.58;23.77;;;5.20;94.40;;;;;;5053643;28;20108;-77
2020/12/21 04:21:00;;;;;;;39.60;23.50;;;5.10;94.40;;;;;;5055395;28;20060;-76
2020/12/21 04:23:26;;;;;;;35.35;21.95;;;5.10;94.70;;;;;;5054026;28;20548;-76
2020/12/21 04:25:51;;;;;;;33.47;20.25;;;5.20;94.50;;;;;;5055365;28;20032;-77
2020/12/21 04:28:17;;;;;;;34.92;21.88;;;5.20;94.30;;;;;;5053960;28;20028;-75
2020/12/21 04:30:43;;;;;;;41.58;24.75;;;5.20;94.30;;;;;;5055258;28;20080;-76
2020/12/21 04:33:09;;;;;;;36.38;22.77;;;5.30;94.30;;;;;;5053645;28;20025;-77
2020/12/21 04:35:34;;;;;;;39.83;23.65;;;5.20;94.10;;;;;;5054908;28;20036;-77
2020/12/21 04:38:00;;;;;;;37.55;22.48;;;5.20;94.30;;;;;;5053805;28;20029;-76
2020/12/21 04:40:26;;;;;;;33.58;20.70;;;5.20;94.30;;;;;;5053535;28;20032;-75
2020/12/21 04:42:55;;;;;;;33.45;19.42;;;5.20;94.20;;;;;;5053728;28;20067;-76
2020/12/21 04:45:21;;;;;;;35.33;20.63;;;5.20;94.20;;;;;;5053764;28;20025;-76
2020/12/21 04:47:47;;;;;;;36.63;21.38;;;5.20;94.30;;;;;;5054629;28;20036;-74
2020/12/21 04:50:15;;;;;;;34.22;21.92;;;5.20;94.30;;;;;;5054250;28;20101;-75
2020/12/21 04:52:52;;;;;;;39.90;22.85;;;5.20;94.20;;;;;;5055036;28;20453;-75
2020/12/21 04:55:22;;;;;;;40.45;25.35;;;5.20;94.20;;;;;;5053235;28;20442;-75
2020/12/21 04:57:59;;;;;;;38.50;23.25;;;5.20;94.10;;;;;;5053469;28;20033;-76
2020/12/21 05:00:26;;;;;;;41.22;22.60;;;5.20;94.30;;;;;;5054633;28;20021;-76
2020/12/21 05:02:52;;;;;;;32.58;20.38;;;5.20;94.30;;;;;;5053210;28;20032;-76
2020/12/21 05:05:35;;;;;;;32.92;20.20;;;5.20;94.20;;;;;;5053360;28;20514;-76
2020/12/21 05:08:16;;;;;;;49.50;29.00;;;5.20;94.00;;;;;;5054612;28;20360;-75
2020/12/21 05:10:59;;;;;;;74.35;58.80;;;5.20;94.10;;;;;;5054530;28;20032;-76
2020/12/21 05:13:26;;;;;;;47.55;28.05;;;5.20;94.10;;;;;;5053952;28;20028;-76
2020/12/21 05:15:53;;;;;;;40.80;26.08;;;5.20;94.10;;;;;;5054103;28;20033;-75
2020/12/21 05:18:42;;;;;;;29.38;18.08;;;5.20;94.30;;;;;;5053121;28;20499;-77
2020/12/21 05:21:10;;;;;;;28.52;17.98;;;5.20;94.30;;;;;;5052741;28;20025;-75
2020/12/21 05:23:36;;;;;;;26.67;16.40;;;5.20;94.40;;;;;;5054322;28;20119;-75
2020/12/21 05:26:12;;;;;;;26.83;15.95;;;5.10;94.30;;;;;;5052996;28;20112;-76
2020/12/21 05:28:40;;;;;;;24.05;15.70;;;5.10;94.40;;;;;;5052646;28;20028;-76
2020/12/21 05:31:11;;;;;;;27.30;17.80;;;5.20;94.40;;;;;;5052510;28;20053;-76
2020/12/21 05:33:45;;;;;;;28.20;15.98;;;5.20;94.20;;;;;;5052775;28;20037;-75
2020/12/21 05:36:17;;;;;;;27.23;15.93;;;5.20;94.30;;;;;;5052537;28;20033;-76
2020/12/21 05:38:43;;;;;;;25.67;15.38;;;5.20;94.10;;;;;;5053411;28;20029;-76
2020/12/21 05:41:18;;;;;;;26.50;16.20;;;5.30;94.10;;;;;;5052747;28;20032;-76
2020/12/21 05:43:48;;;;;;;25.45;15.73;;;5.30;94.20;;;;;;5052756;28;20086;-76
2020/12/21 05:46:16;;;;;;;24.52;15.45;;;5.20;94.20;;;;;;5052982;28;20029;-76
2020/12/21 05:48:46;;;;;;;27.25;16.20;;;5.30;94.10;;;;;;5052623;28;20040;-77
2020/12/21 05:51:23;;;;;;;29.55;18.38;;;5.20;94.20;;;;;;5052360;28;20115;-75
2020/12/21 05:53:55;;;;;;;26.40;16.67;;;5.30;94.10;;;;;;5053723;28;20485;-76
2020/12/21 05:56:22;;;;;;;31.65;17.60;;;5.20;94.20;;;;;;5052368;28;20036;-75
2020/12/21 05:58:49;;;;;;;30.77;17.50;;;5.30;94.30;;;;;;5052795;28;20025;-76
2020/12/21 06:01:16;;;;;;;29.70;18.63;;;5.30;94.20;;;;;;5052495;28;20025;-76
2020/12/21 06:03:45;;;;;;;29.35;17.85;;;5.20;94.00;;;;;;5052320;28;20456;-77
2020/12/21 06:06:15;;;;;;;29.80;18.48;;;5.20;94.20;;;;;;5052414;28;20021;-75
2020/12/21 06:08:42;;;;;;;29.45;17.83;;;5.20;94.20;;;;;;5052710;28;20025;-76
2020/12/21 06:11:13;;;;;;;32.22;19.90;;;5.10;94.40;;;;;;5053370;28;20021;-76
2020/12/21 06:13:50;;;;;;;34.55;20.60;;;5.20;94.50;;;;;;5054066;28;20029;-77
2020/12/21 06:16:17;;;;;;;31.88;20.17;;;5.20;94.30;;;;;;5056637;28;20265;-76
2020/12/21 06:18:55;;;;;;;33.55;21.17;;;5.20;94.20;;;;;;5056206;28;20025;-76
2020/12/21 06:21:28;;;;;;;39.28;24.70;;;5.30;94.10;;;;;;5057709;28;20036;-77
2020/12/21 06:23:53;;;;;;;69.22;41.45;;;5.30;94.10;;;;;;5056332;28;20025;-76
2020/12/21 06:26:31;;;;;;;55.30;32.47;;;5.30;94.00;;;;;;5056178;28;20032;-76
2020/12/21 06:29:01;;;;;;;33.58;19.15;;;5.30;94.10;;;;;;5057943;28;20377;-76
2020/12/21 06:31:37;;;;;;;32.97;21.75;;;5.30;93.90;;;;;;5055458;28;20420;-76
2020/12/21 06:34:03;;;;;;;32.33;18.90;;;5.30;93.90;;;;;;5056999;28;20032;-76
2020/12/21 06:36:35;;;;;;;30.45;17.92;;;5.30;93.90;;;;;;5056160;28;20037;-76
2020/12/21 06:39:02;;;;;;;24.80;15.95;;;5.30;93.90;;;;;;5055853;28;20025;-76
2020/12/21 06:41:28;;;;;;;27.08;16.90;;;5.30;93.90;;;;;;5056033;28;20118;-76
2020/12/21 06:43:55;;;;;;;28.92;15.57;;;5.30;93.80;;;;;;5056075;28;20025;-75
2020/12/21 06:46:21;;;;;;;25.65;15.43;;;5.30;93.70;;;;;;5055758;28;20125;-76
2020/12/21 06:49:06;;;;;;;24.38;15.23;;;5.30;93.90;;;;;;5056002;28;20372;-76
2020/12/21 06:51:33;;;;;;;91.38;49.42;;;5.30;93.80;;;;;;5057400;28;20365;-76
2020/12/21 06:54:00;;;;;;;115.72;63.13;;;5.30;93.90;;;;;;5056665;28;20040;-76
2020/12/21 06:56:26;;;;;;;76.05;46.55;;;5.30;93.80;;;;;;5056094;28;20033;-77
2020/12/21 06:58:56;;;;;;;68.18;42.47;;;5.30;93.70;;;;;;5055761;28;20461;-77
2020/12/21 07:01:24;;;;;;;56.80;36.03;;;5.40;93.70;;;;;;5055438;28;20076;-76
2020/12/21 07:03:50;;;;;;;37.97;23.45;;;5.40;93.50;;;;;;5055603;28;20029;-76
2020/12/21 07:06:16;;;;;;;35.40;21.75;;;5.40;94.10;;;;;;5055260;28;20025;-76
2020/12/21 07:08:43;;;;;;;33.90;19.13;;;5.30;94.30;;;;;;5055551;28;20036;-76
2020/12/21 07:11:22;;;;;;;40.08;20.63;;;5.40;94.10;;;;;;5055279;28;20056;-77
2020/12/21 07:13:49;;;;;;;34.55;20.52;;;5.40;93.80;;;;;;5054863;28;20056;-76
2020/12/21 07:16:20;;;;;;;40.13;22.40;;;5.50;93.80;;;;;;5055436;28;20484;-76
2020/12/21 07:18:46;;;;;;;166.35;89.80;;;5.50;93.60;;;;;;5055736;28;20044;-74
2020/12/21 07:21:12;;;;;;;89.50;47.10;;;5.50;93.70;;;;;;5054974;28;20025;-75
2020/12/21 07:23:39;;;;;;;125.13;65.25;;;5.40;93.60;;;;;;5055210;28;20062;-75
2020/12/21 07:26:09;;;;;;;98.93;54.83;;;5.40;93.90;;;;;;5056470;28;20017;-77
2020/12/21 07:28:35;;;;;;;87.80;48.05;;;5.30;93.90;;;;;;5055223;28;20373;-77
2020/12/21 07:31:18;;;;;;;72.82;41.42;;;5.40;93.90;;;;;;5054967;28;20381;-76
2020/12/21 07:34:02;;;;;;;66.57;37.58;;;5.50;93.80;;;;;;5055040;28;20370;-77
2020/12/21 07:36:30;;;;;;;54.63;29.17;;;5.60;93.60;;;;;;5056114;28;20029;-75
2020/12/21 07:39:12;;;;;;;37.45;20.77;;;5.60;93.60;;;;;;5055039;28;20033;-76
2020/12/21 07:41:40;;;;;;;49.80;27.13;;;5.80;93.30;;;;;;5054730;28;20028;-73
2020/12/21 07:44:17;;;;;;;32.90;18.48;;;5.70;93.30;;;;;;5055157;28;20068;-76
2020/12/21 07:46:58;;;;;;;28.05;16.90;;;5.80;93.30;;;;;;5054346;28;20074;-77
2020/12/21 07:49:24;;;;;;;32.50;19.00;;;5.90;93.00;;;;;;5052979;28;20549;-76
2020/12/21 07:51:56;;;;;;;42.72;24.10;;;5.90;93.10;;;;;;5053968;28;20075;-75
2020/12/21 07:54:22;;;;;;;45.42;26.10;;;6.00;92.70;;;;;;5054183;28;20029;-76
2020/12/21 07:56:59;;;;;;;101.03;55.63;;;6.00;92.90;;;;;;5053921;28;20376;-76
2020/12/21 07:59:25;;;;;;;38.17;24.15;;;6.00;92.70;;;;;;5054463;28;20086;-76
2020/12/21 08:02:02;;;;;;;36.83;21.58;;;6.10;93.40;;;;;;5054524;28;20115;-76
2020/12/21 08:04:28;;;;;;;40.30;22.25;;;6.10;93.10;;;;;;5054241;28;20170;-76
2020/12/21 08:07:11;;;;;;;36.60;20.27;;;6.10;93.30;;;;;;5055465;28;20048;-76
2020/12/21 08:09:38;;;;;;;33.88;19.55;;;6.10;93.10;;;;;;5054099;28;20481;-77
2020/12/21 08:12:14;;;;;;;30.80;19.13;;;6.20;92.80;;;;;;5055552;28;20032;-77
2020/12/21 08:14:42;;;;;;;32.30;19.63;;;6.20;93.00;;;;;;5055218;28;20175;-77
2020/12/21 08:17:15;;;;;;;27.83;18.20;;;6.30;93.00;;;;;;5053992;28;20104;-77
2020/12/21 08:19:54;;;;;;;28.52;17.67;;;6.30;93.00;;;;;;5055285;28;20113;-76
2020/12/21 08:22:24;;;;;;;34.22;21.30;;;6.30;92.70;;;;;;5055519;28;20032;-77
2020/12/21 08:25:11;;;;;;;33.35;21.90;;;6.40;92.90;;;;;;5053989;28;20032;-77
2020/12/21 08:27:52;;;;;;;36.17;22.88;;;6.40;92.70;;;;;;5054478;28;20534;-77
2020/12/21 08:30:22;;;;;;;36.55;23.83;;;6.40;92.30;;;;;;5053972;28;20053;-77
2020/12/21 08:32:50;;;;;;;38.97;26.70;;;6.50;92.60;;;;;;5053768;28;20029;-77
2020/12/21 08:35:26;;;;;;;33.95;21.17;;;6.50;92.30;;;;;;5053810;28;20033;-77
2020/12/21 08:37:52;;;;;;;138.50;64.18;;;6.60;91.30;;;;;;5053385;28;20091;-77
2020/12/21 08:40:21;;;;;;;72.97;42.80;;;6.60;91.50;;;;;;5053829;28;20025;-78
2020/12/21 08:42:48;;;;;;;54.63;31.13;;;6.60;92.00;;;;;;5054581;28;20047;-77
2020/12/21 08:45:20;;;;;;;81.22;47.78;;;6.60;91.20;;;;;;5053431;28;20029;-77
2020/12/21 08:47:47;;;;;;;66.13;39.67;;;6.70;92.20;;;;;;5055037;28;20032;-76
2020/12/21 08:50:13;;;;;;;170.27;82.32;;;6.80;91.70;;;;;;5053580;28;20112;-77
2020/12/21 08:52:39;;;;;;;71.88;39.13;;;6.70;91.20;;;;;;5053410;28;20025;-77
2020/12/21 08:55:06;;;;;;;43.35;25.52;;;6.70;91.70;;;;;;5053444;28;20362;-75
2020/12/21 08:57:35;;;;;;;56.17;32.47;;;6.80;91.40;;;;;;5053449;28;20040;-75
2020/12/21 09:00:04;;;;;;;37.53;21.70;;;6.80;91.80;;;;;;5053294;28;20431;-77
2020/12/21 09:02:30;;;;;;;76.95;48.95;;;6.90;91.90;;;;;;5053362;28;20025;-72
2020/12/21 09:04:56;;;;;;;249.25;175.63;;;6.90;91.30;;;;;;5053310;28;20039;-72
2020/12/21 09:07:22;;;;;;;117.25;74.05;;;7.00;92.10;;;;;;5053048;28;20043;-77
2020/12/21 09:09:47;;;;;;;102.00;61.20;;;7.00;91.60;;;;;;5054165;28;20028;-78
2020/12/21 09:12:13;;;;;;;113.15;62.67;;;7.10;91.10;;;;;;5054155;28;20432;-78
2020/12/21 09:14:39;;;;;;;114.88;53.22;;;7.00;90.80;;;;;;5053418;28;20033;-78
2020/12/21 09:17:05;;;;;;;93.28;40.10;;;7.00;90.80;;;;;;5053321;28;20484;-77
2020/12/21 09:19:30;;;;;;;174.25;67.20;;;7.00;90.40;;;;;;5052853;28;20441;-78
2020/12/21 09:21:56;;;;;;;729.72;274.45;;;7.00;91.80;;;;;;5053051;28;20469;-78
2020/12/21 09:24:22;;;;;;;360.08;125.70;;;7.00;91.80;;;;;;5052465;28;20616;-77
2020/12/21 09:26:48;;;;;;;600.80;208.25;;;7.00;91.90;;;;;;5052073;28;20036;-78
2020/12/21 09:29:14;;;;;;;1060.07;377.58;;;7.10;92.00;;;;;;5051839;28;20056;-79
2020/12/21 09:31:39;;;;;;;1017.45;378.83;;;7.10;91.70;;;;;;5051738;28;20047;-79
2020/12/21 09:34:05;;;;;;;76.15;35.47;;;7.20;91.50;;;;;;5052354;28;20075;-79
2020/12/21 09:36:33;;;;;;;1294.03;500.73;;;7.20;90.40;;;;;;5052799;28;20037;-79
2020/12/21 09:39:00;;;;;;;259.15;88.57;;;7.10;91.10;;;;;;5052466;28;20045;-80
2020/12/21 09:41:26;;;;;;;1639.22;619.80;;;7.10;91.70;;;;;;5052583;28;20099;-79
2020/12/21 09:43:52;;;;;;;298.35;98.15;;;7.20;91.70;;;;;;5052411;28;20049;-79
2020/12/21 09:46:23;;;;;;;52.45;28.23;;;7.20;91.00;;;;;;5054030;28;20036;-79
2020/12/21 09:48:50;;;;;;;57.83;30.80;;;7.20;90.30;;;;;;5051714;28;20025;-78
2020/12/21 09:51:16;;;;;;;39.20;22.80;;;7.20;90.30;;;;;;5052799;28;20373;-78
2020/12/21 09:53:43;;;;;;;50.83;28.02;;;7.10;89.90;;;;;;5053853;28;20029;-77
2020/12/21 09:56:12;;;;;;;61.75;32.13;;;7.10;90.80;;;;;;5052478;28;20032;-78
2020/12/21 09:58:39;;;;;;;91.43;41.42;;;7.20;91.10;;;;;;5052296;28;21957;-79
2020/12/21 10:01:06;;;;;;;89.43;48.10;;;7.30;91.10;;;;;;5051692;28;20079;-78
2020/12/21 10:03:32;;;;;;;59.30;34.80;;;7.40;90.50;;;;;;5050590;28;20036;-78
2020/12/21 10:05:58;;;;;;;70.15;42.33;;;7.40;90.20;;;;;;5051043;28;20196;-78
2020/12/21 10:08:24;;;;;;;155.07;94.07;;;7.50;90.90;;;;;;5052326;28;20464;-78
2020/12/21 10:10:50;;;;;;;126.90;69.53;;;7.60;90.90;;;;;;5051049;28;20017;-77
2020/12/21 10:13:15;;;;;;;131.57;71.03;;;7.70;89.70;;;;;;5051873;28;20113;-78
2020/12/21 10:15:41;;;;;;;130.32;66.47;;;7.80;89.00;;;;;;5050754;28;20036;-78
2020/12/21 10:18:07;;;;;;;164.68;94.38;;;8.10;87.00;;;;;;5051522;28;20119;-79
2020/12/21 10:20:33;;;;;;;134.52;78.03;;;8.10;88.00;;;;;;5052796;28;20448;-78
2020/12/21 10:22:59;;;;;;;123.80;79.05;;;8.10;87.80;;;;;;5052528;28;20048;-77
2020/12/21 10:25:25;;;;;;;96.90;53.35;;;8.00;87.90;;;;;;5052419;28;20423;-78
2020/12/21 10:27:51;;;;;;;667.78;395.23;;;7.90;86.80;;;;;;5052265;28;20461;-78
2020/12/21 10:30:18;;;;;;;395.75;200.30;;;7.80;88.20;;;;;;5051624;28;20061;-78
2020/12/21 10:32:44;;;;;;;56.88;35.42;;;7.80;87.90;;;;;;5053564;28;20054;-79
2020/12/21 10:35:11;;;;;;;422.35;252.25;;;7.60;87.10;;;;;;5052344;28;20029;-78
2020/12/21 10:37:37;;;;;;;78.78;47.03;;;7.50;88.50;;;;;;5052037;28;20032;-77
2020/12/21 10:40:03;;;;;;;87.18;46.55;;;7.60;88.00;;;;;;5052238;28;20032;-77
2020/12/21 10:42:29;;;;;;;394.75;192.18;;;7.60;88.30;;;;;;5053134;28;20036;-77
2020/12/21 10:44:54;;;;;;;115.57;61.53;;;7.70;89.30;;;;;;5051887;28;20029;-79
2020/12/21 10:47:21;;;;;;;69.93;42.28;;;7.70;88.50;;;;;;5052421;28;20028;-78
2020/12/21 10:49:47;;;;;;;57.30;36.05;;;7.80;88.40;;;;;;5052239;28;20036;-79
2020/12/21 10:52:13;;;;;;;56.65;34.97;;;7.80;87.60;;;;;;5053239;28;20025;-80
2020/12/21 10:54:38;;;;;;;59.50;34.78;;;7.70;86.60;;;;;;5052079;28;20461;-79
2020/12/21 10:57:06;;;;;;;58.40;33.75;;;7.70;87.80;;;;;;5051801;28;20029;-79
2020/12/21 10:59:32;;;;;;;69.43;40.10;;;7.70;87.20;;;;;;5053301;28;20035;-78
2020/12/21 11:01:58;;;;;;;392.80;211.18;;;7.80;88.20;;;;;;5055803;28;20025;-78
2020/12/21 11:04:24;;;;;;;960.65;572.83;;;8.00;90.10;;;;;;5055429;28;20044;-79
2020/12/21 11:06:50;;;;;;;206.88;105.28;;;8.20;90.30;;;;;;5055929;28;20025;-80
2020/12/21 11:09:16;;;;;;;103.55;55.10;;;8.20;88.80;;;;;;5056002;28;20429;-78
2020/12/21 11:11:41;;;;;;;247.70;116.40;;;8.30;90.10;;;;;;5054255;28;20029;-80
2020/12/21 11:14:08;;;;;;;92.45;51.10;;;8.60;89.10;;;;;;5054291;28;20074;-79
2020/12/21 11:16:34;;;;;;;61.05;38.22;;;8.70;86.60;;;;;;5054082;28;20078;-79
2020/12/21 11:18:59;;;;;;;228.13;124.88;;;8.60;85.80;;;;;;5055142;28;20384;-80
2020/12/21 11:21:26;;;;;;;70.40;40.58;;;8.50;85.60;;;;;;5055492;28;20025;-80
2020/12/21 11:23:51;;;;;;;80.95;48.83;;;8.40;85.40;;;;;;5055303;28;20075;-80
2020/12/21 11:26:19;;;;;;;105.32;64.88;;;8.30;86.40;;;;;;5055356;28;20091;-79
2020/12/21 11:28:46;;;;;;;197.55;114.97;;;8.40;87.10;;;;;;5055325;28;20029;-79
2020/12/21 11:31:16;;;;;;;98.03;53.42;;;8.40;87.10;;;;;;5055197;28;20160;-80
2020/12/21 11:33:42;;;;;;;114.43;62.05;;;8.30;86.70;;;;;;5054962;28;20032;-78
2020/12/21 11:36:08;;;;;;;70.30;41.72;;;8.30;86.10;;;;;;5056382;28;20030;-79
2020/12/21 11:38:34;;;;;;;99.55;56.22;;;8.10;86.70;;;;;;5056365;28;20029;-78
2020/12/21 11:41:00;;;;;;;212.88;115.97;;;8.20;88.50;;;;;;5054674;28;20026;-79
2020/12/21 11:43:25;;;;;;;485.15;295.90;;;8.30;89.20;;;;;;5055385;28;20075;-78
2020/12/21 11:45:51;;;;;;;96.70;58.38;;;8.30;88.90;;;;;;5054640;28;20354;-77
2020/12/21 11:48:17;;;;;;;347.55;192.77;;;8.30;87.90;;;;;;5054696;28;20443;-77
2020/12/21 11:50:44;;;;;;;83.28;49.50;;;8.40;89.20;;;;;;5055198;28;20047;-77
2020/12/21 11:53:09;;;;;;;115.78;63.20;;;8.40;88.50;;;;;;5055195;28;20021;-77
2020/12/21 11:55:35;;;;;;;192.63;117.93;;;8.50;88.70;;;;;;5054716;28;20444;-77
2020/12/21 11:58:01;;;;;;;64.03;40.10;;;8.50;88.00;;;;;;5054754;28;20029;-79
2020/12/21 12:00:27;;;;;;;67.25;41.78;;;8.40;84.80;;;;;;5054382;28;20029;-78
2020/12/21 12:02:52;;;;;;;267.67;122.93;;;8.40;86.00;;;;;;5055654;28;20029;-76
2020/12/21 12:05:18;;;;;;;897.67;464.70;;;8.50;87.30;;;;;;5054470;28;20453;-77
2020/12/21 12:07:44;;;;;;;1496.65;727.88;;;8.50;88.40;;;;;;5054400;28;20453;-76
2020/12/21 12:10:10;;;;;;;457.27;219.60;;;8.60;88.20;;;;;;5053822;28;20526;-76
2020/12/21 12:12:36;;;;;;;147.70;74.97;;;8.60;86.00;;;;;;5053859;28;20025;-77
2020/12/21 12:15:02;;;;;;;85.40;51.17;;;8.60;86.00;;;;;;5054538;28;20033;-76
2020/12/21 12:17:28;;;;;;;365.63;151.75;;;8.50;83.60;;;;;;5055557;28;20487;-77
2020/12/21 12:19:54;;;;;;;91.47;54.67;;;8.40;85.90;;;;;;5054472;28;20029;-76
2020/12/21 12:22:20;;;;;;;51.38;32.90;;;8.40;85.50;;;;;;5054173;28;20021;-77
2020/12/21 12:24:45;;;;;;;101.82;60.72;;;8.30;83.40;;;;;;5054166;28;20456;-77
2020/12/21 12:27:11;;;;;;;265.67;115.70;;;8.30;85.80;;;;;;5054339;28;20021;-77
2020/12/21 12:29:37;;;;;;;511.73;238.75;;;8.40;87.60;;;;;;5053810;28;20457;-77
2020/12/21 12:32:03;;;;;;;1168.15;574.67;;;8.50;87.10;;;;;;5053808;28;20049;-77
2020/12/21 12:34:29;;;;;;;1127.78;527.75;;;8.50;87.90;;;;;;5053848;28;20029;-75
2020/12/21 12:36:54;;;;;;;524.67;245.57;;;8.50;86.00;;;;;;5053594;28;20025;-74